createdAt,value
2018-08-28T00:01:04.535Z,95.00
2018-08-28T00:03:32.843Z,94.90
2018-08-28T00:06:00.943Z,95.00
2018-08-28T00:08:29.035Z,95.10
2018-08-28T00:10:57.127Z,95.20
2018-08-28T00:13:25.215Z,95.20
2018-08-28T00:15:53.303Z,95.20
2018-08-28T00:18:21.399Z,95.30
2018-08-28T00:20:49.503Z,95.30
2018-08-28T00:23:17.696Z,95.30
2018-08-28T00:25:45.788Z,95.30
2018-08-28T00:28:13.877Z,95.20
2018-08-28T00:30:41.981Z,95.40
2018-08-28T00:33:10.638Z,95.40
2018-08-28T00:35:38.919Z,95.50
2018-08-28T00:38:15.916Z,95.80
2018-08-28T00:40:44.035Z,95.90
2018-08-28T00:43:12.148Z,96.00
2018-08-28T00:45:40.256Z,96.00
2018-08-28T00:48:08.414Z,96.30
2018-08-28T00:50:36.527Z,96.50
2018-08-28T00:53:04.647Z,96.90
2018-08-28T00:55:32.764Z,97.20
2018-08-28T00:58:00.869Z,97.20
2018-08-28T01:00:28.976Z,97.30
2018-08-28T01:02:57.095Z,97.40
2018-08-28T01:05:25.215Z,97.40
2018-08-28T01:07:53.812Z,97.50
2018-08-28T01:10:21.964Z,97.60
2018-08-28T01:12:50.157Z,97.60
2018-08-28T01:15:18.271Z,97.60
2018-08-28T01:17:46.400Z,97.60
2018-08-28T01:20:14.524Z,97.60
2018-08-28T01:22:42.623Z,97.40
2018-08-28T01:25:10.747Z,97.30
2018-08-28T01:27:38.973Z,97.30
2018-08-28T01:30:07.221Z,97.30
2018-08-28T01:32:35.359Z,97.40
2018-08-28T01:35:03.487Z,97.40
2018-08-28T01:37:31.613Z,97.50
2018-08-28T01:39:59.740Z,97.50
2018-08-28T01:42:27.852Z,97.30
2018-08-28T01:44:55.966Z,97.50
2018-08-28T01:47:24.072Z,97.50
2018-08-28T01:49:52.235Z,97.50
2018-08-28T01:52:20.870Z,97.60
2018-08-28T01:54:48.988Z,98.00
2018-08-28T01:57:17.101Z,98.20
2018-08-28T01:59:45.216Z,98.40
2018-08-28T02:02:13.336Z,99.10
2018-08-28T02:04:41.454Z,99.00
2018-08-28T02:07:09.572Z,99.10
2018-08-28T02:09:37.686Z,99.20
2018-08-28T02:12:05.792Z,99.20
2018-08-28T02:14:33.889Z,99.40
2018-08-28T02:17:02.021Z,99.70
2018-08-28T02:19:30.109Z,99.80
2018-08-28T02:21:58.221Z,99.80
2018-08-28T02:24:26.329Z,99.90
2018-08-28T02:26:54.433Z,99.90
2018-08-28T02:29:22.547Z,99.90
2018-08-28T02:31:50.656Z,99.90
2018-08-28T02:34:18.764Z,99.90
2018-08-28T02:36:46.872Z,99.90
2018-08-28T02:39:14.972Z,99.90
2018-08-28T02:41:43.095Z,99.90
2018-08-28T02:44:11.205Z,99.90
2018-08-28T02:46:39.329Z,99.90
2018-08-28T02:49:07.424Z,99.90
2018-08-28T02:51:36.250Z,99.90
2018-08-28T02:54:04.385Z,99.90
2018-08-28T02:56:32.506Z,99.90
2018-08-28T02:59:00.631Z,99.90
2018-08-28T03:01:28.768Z,99.90
2018-08-28T03:03:56.880Z,99.90
2018-08-28T03:06:25.040Z,99.90
2018-08-28T03:08:53.148Z,99.90
2018-08-28T03:11:21.345Z,99.90
2018-08-28T03:13:49.426Z,99.90
2018-08-28T03:16:17.543Z,99.90
2018-08-28T03:18:45.672Z,99.90
2018-08-28T03:21:13.780Z,99.90
2018-08-28T03:23:41.921Z,99.90
2018-08-28T03:26:10.379Z,99.90
2018-08-28T03:28:38.776Z,99.90
2018-08-28T03:31:06.884Z,99.90
2018-08-28T03:33:35.030Z,99.90
2018-08-28T03:36:03.144Z,99.90
2018-08-28T03:38:31.249Z,99.90
2018-08-28T03:40:59.355Z,99.90
2018-08-28T03:43:27.491Z,99.90
2018-08-28T03:45:55.602Z,99.90
2018-08-28T03:48:23.793Z,99.90
2018-08-28T03:50:51.908Z,99.90
2018-08-28T03:53:20.417Z,99.90
2018-08-28T03:55:48.530Z,99.90
2018-08-28T03:58:16.644Z,99.90
2018-08-28T04:00:44.753Z,99.90
2018-08-28T04:03:12.915Z,99.90
2018-08-28T04:05:41.239Z,99.90
2018-08-28T04:08:09.358Z,99.90
2018-08-28T04:10:37.461Z,99.90
2018-08-28T04:13:06.375Z,99.90
2018-08-28T04:15:34.485Z,99.90
2018-08-28T04:18:02.607Z,99.90
2018-08-28T04:20:30.716Z,99.90
2018-08-28T04:22:58.965Z,99.90
2018-08-28T04:25:27.146Z,99.90
2018-08-28T04:27:55.255Z,99.90
2018-08-28T04:30:23.405Z,99.90
2018-08-28T04:32:51.488Z,99.90
2018-08-28T04:35:19.567Z,99.90
2018-08-28T04:37:47.692Z,99.90
2018-08-28T04:40:15.803Z,99.90
2018-08-28T04:42:43.914Z,99.90
2018-08-28T04:45:11.997Z,99.90
2018-08-28T04:47:40.109Z,99.90
2018-08-28T04:50:08.214Z,99.90
2018-08-28T04:52:36.333Z,99.90
2018-08-28T04:55:04.480Z,99.90
2018-08-28T04:57:32.568Z,99.90
2018-08-28T05:00:00.655Z,99.90
2018-08-28T05:02:33.024Z,99.90
2018-08-28T05:05:01.431Z,99.90
2018-08-28T05:07:29.657Z,99.90
2018-08-28T05:09:57.788Z,99.90
2018-08-28T05:12:25.925Z,99.90
2018-08-28T05:14:54.069Z,99.90
2018-08-28T05:17:22.223Z,99.90
2018-08-28T05:19:50.340Z,99.90
2018-08-28T05:22:18.448Z,99.90
2018-08-28T05:24:46.570Z,99.90
2018-08-28T05:27:14.682Z,99.90
2018-08-28T05:29:42.803Z,99.90
2018-08-28T05:32:10.892Z,99.90
2018-08-28T05:34:39.003Z,99.90
2018-08-28T05:37:07.101Z,99.90
2018-08-28T05:39:35.227Z,99.90
2018-08-28T05:42:03.345Z,99.90
2018-08-28T05:44:31.460Z,99.90
2018-08-28T05:46:59.573Z,99.90
2018-08-28T05:49:27.728Z,99.90
2018-08-28T05:51:55.822Z,99.90
2018-08-28T05:54:23.927Z,99.90
2018-08-28T05:56:52.042Z,99.90
2018-08-28T05:59:20.170Z,99.90
2018-08-28T06:01:48.284Z,99.90
2018-08-28T06:04:16.402Z,99.90
2018-08-28T06:06:44.526Z,99.90
2018-08-28T06:09:12.640Z,99.90
2018-08-28T06:11:40.750Z,99.90
2018-08-28T06:14:09.267Z,99.90
2018-08-28T06:16:37.380Z,99.90
2018-08-28T06:19:05.637Z,99.90
2018-08-28T06:21:33.747Z,99.90
2018-08-28T06:24:01.879Z,99.90
2018-08-28T06:26:30.045Z,99.90
2018-08-28T06:28:58.106Z,99.90
2018-08-28T06:31:26.200Z,99.90
2018-08-28T06:33:54.438Z,99.90
2018-08-28T06:36:22.548Z,99.90
2018-08-28T06:38:50.681Z,99.90
2018-08-28T06:41:18.765Z,99.90
2018-08-28T06:43:46.928Z,99.90
2018-08-28T06:46:14.988Z,99.90
2018-08-28T06:48:43.111Z,99.90
2018-08-28T06:51:11.228Z,99.90
2018-08-28T06:53:39.424Z,99.80
2018-08-28T06:56:07.535Z,99.50
2018-08-28T06:58:35.673Z,99.90
2018-08-28T07:01:03.805Z,99.30
2018-08-28T07:03:31.916Z,99.30
2018-08-28T07:06:00.032Z,99.30
2018-08-28T07:08:28.136Z,98.90
2018-08-28T07:10:56.258Z,98.70
2018-08-28T07:13:24.357Z,98.50
2018-08-28T07:15:52.489Z,98.10
2018-08-28T07:18:20.602Z,97.80
2018-08-28T07:20:48.708Z,97.80
2018-08-28T07:23:16.848Z,97.10
2018-08-28T07:25:45.048Z,97.10
2018-08-28T07:28:13.099Z,97.00
2018-08-28T07:30:41.224Z,96.60
2018-08-28T07:33:09.377Z,96.20
2018-08-28T07:35:37.485Z,96.20
2018-08-28T07:38:05.650Z,95.70
2018-08-28T07:40:33.774Z,95.80
2018-08-28T07:43:01.888Z,95.60
2018-08-28T07:45:29.999Z,95.60
2018-08-28T07:47:58.130Z,95.30
2018-08-28T07:50:26.248Z,95.20
2018-08-28T07:52:54.349Z,95.20
2018-08-28T07:55:22.477Z,95.10
2018-08-28T07:57:50.609Z,94.80
2018-08-28T08:00:18.725Z,94.80
2018-08-28T08:02:46.856Z,94.80
2018-08-28T08:05:14.976Z,94.50
2018-08-28T08:07:43.081Z,94.30
2018-08-28T08:10:11.208Z,94.70
2018-08-28T08:12:39.303Z,94.60
2018-08-28T08:15:07.420Z,94.50
2018-08-28T08:17:35.529Z,94.70
2018-08-28T08:20:03.651Z,94.40
2018-08-28T08:22:31.781Z,94.30
2018-08-28T08:24:59.901Z,93.40
2018-08-28T08:27:28.008Z,93.40
2018-08-28T08:29:56.116Z,93.10
2018-08-28T08:32:24.215Z,92.60
2018-08-28T08:34:52.333Z,92.90
2018-08-28T08:37:20.440Z,92.00
2018-08-28T08:39:48.605Z,91.90
2018-08-28T08:42:16.715Z,91.70
2018-08-28T08:44:44.881Z,91.90
2018-08-28T08:47:13.025Z,91.50
2018-08-28T08:49:41.149Z,91.50
2018-08-28T08:52:09.266Z,91.30
2018-08-28T08:54:37.373Z,91.00
2018-08-28T08:57:05.496Z,90.30
2018-08-28T08:59:33.622Z,90.20
2018-08-28T09:02:01.782Z,90.20
2018-08-28T09:04:29.914Z,87.70
2018-08-28T09:06:58.029Z,88.30
2018-08-28T09:09:26.156Z,88.50
2018-08-28T09:11:54.279Z,88.00
2018-08-28T09:14:22.386Z,87.40
2018-08-28T09:16:50.492Z,85.50
2018-08-28T09:19:18.661Z,86.00
2018-08-28T09:21:46.754Z,85.70
2018-08-28T09:24:14.854Z,85.10
2018-08-28T09:26:42.968Z,85.80
2018-08-28T09:29:11.077Z,86.70
2018-08-28T09:31:39.340Z,86.10
2018-08-28T09:34:07.397Z,84.30
2018-08-28T09:36:35.521Z,84.80
2018-08-28T09:39:04.475Z,84.20
2018-08-28T09:41:32.606Z,84.50
2018-08-28T09:44:00.732Z,84.60
2018-08-28T09:46:28.884Z,84.40
2018-08-28T09:48:57.000Z,83.10
2018-08-28T09:51:25.123Z,82.80
2018-08-28T09:53:53.240Z,80.80
2018-08-28T09:56:21.381Z,80.20
2018-08-28T09:58:49.500Z,80.70
2018-08-28T10:01:22.961Z,80.70
2018-08-28T10:03:51.202Z,80.60
2018-08-28T10:06:19.333Z,79.20
2018-08-28T10:08:47.452Z,78.40
2018-08-28T10:11:15.629Z,78.80
2018-08-28T10:13:43.769Z,78.60
2018-08-28T10:16:11.953Z,81.00
2018-08-28T10:18:40.071Z,78.80
2018-08-28T10:21:08.240Z,77.70
2018-08-28T10:23:36.358Z,77.50
2018-08-28T10:26:04.550Z,78.30
2018-08-28T10:28:32.683Z,78.20
2018-08-28T10:31:00.853Z,76.80
2018-08-28T10:33:28.980Z,76.00
2018-08-28T10:35:57.140Z,76.20
2018-08-28T10:38:25.242Z,75.70
2018-08-28T10:40:53.370Z,75.30
2018-08-28T10:43:21.492Z,75.50
2018-08-28T10:45:50.204Z,75.70
2018-08-28T10:48:18.352Z,75.40
2018-08-28T10:50:46.488Z,76.10
2018-08-28T10:53:14.617Z,76.70
2018-08-28T10:55:42.732Z,77.20
2018-08-28T10:58:10.865Z,76.30
2018-08-28T11:00:39.029Z,76.70
2018-08-28T11:03:07.150Z,76.50
2018-08-28T11:05:35.265Z,77.30
2018-08-28T11:08:03.416Z,77.00
2018-08-28T11:10:31.549Z,76.80
2018-08-28T11:12:59.677Z,77.00
2018-08-28T11:15:27.855Z,77.40
2018-08-28T11:17:55.987Z,77.30
2018-08-28T11:20:24.084Z,75.10
2018-08-28T11:22:52.254Z,74.50
2018-08-28T11:25:20.413Z,73.40
2018-08-28T11:27:48.532Z,72.10
2018-08-28T11:30:16.644Z,71.10
2018-08-28T11:32:44.861Z,70.70
2018-08-28T11:35:12.979Z,72.80
2018-08-28T11:37:41.116Z,72.10
2018-08-28T11:40:09.220Z,73.70
2018-08-28T11:42:37.352Z,73.50
2018-08-28T11:45:05.729Z,74.40
2018-08-28T11:47:33.848Z,74.20
2018-08-28T11:50:02.013Z,74.00
2018-08-28T11:52:30.193Z,74.50
2018-08-28T11:54:58.360Z,75.00
2018-08-28T11:57:26.477Z,75.40
2018-08-28T11:59:54.596Z,74.00
2018-08-28T12:02:22.718Z,73.90
2018-08-28T12:04:50.986Z,73.20
2018-08-28T12:07:19.093Z,74.00
2018-08-28T12:09:47.149Z,72.80
2018-08-28T12:12:15.272Z,71.70
2018-08-28T12:14:43.375Z,71.80
2018-08-28T12:17:11.502Z,73.20
2018-08-28T12:19:39.640Z,73.60
2018-08-28T12:22:07.776Z,74.90
2018-08-28T12:24:35.911Z,75.10
2018-08-28T12:27:04.039Z,75.90
2018-08-28T12:29:32.210Z,75.10
2018-08-28T12:32:00.309Z,75.30
2018-08-28T12:34:37.924Z,75.60
2018-08-28T12:37:06.101Z,74.70
2018-08-28T12:39:34.161Z,73.90
2018-08-28T12:42:02.295Z,74.30
2018-08-28T12:44:30.428Z,74.20
2018-08-28T12:46:58.545Z,73.60
2018-08-28T12:49:26.693Z,73.00
2018-08-28T12:51:54.800Z,72.70
2018-08-28T12:54:22.928Z,73.00
2018-08-28T12:56:51.045Z,72.40
2018-08-28T12:59:19.230Z,71.80
2018-08-28T13:01:47.356Z,71.70
2018-08-28T13:04:15.468Z,71.80
2018-08-28T13:06:43.589Z,72.50
2018-08-28T13:09:11.713Z,73.20
2018-08-28T13:11:39.830Z,73.90
2018-08-28T13:14:07.968Z,75.00
2018-08-28T13:16:36.120Z,75.00
2018-08-28T13:19:04.231Z,75.20
2018-08-28T13:21:32.536Z,73.80
2018-08-28T13:24:00.648Z,73.20
2018-08-28T13:26:28.755Z,73.50
2018-08-28T13:28:56.880Z,73.60
2018-08-28T13:31:25.078Z,72.50
2018-08-28T13:33:53.188Z,72.60
2018-08-28T13:36:21.305Z,73.30
2018-08-28T13:38:49.416Z,73.50
2018-08-28T13:41:17.530Z,73.90
2018-08-28T13:43:45.654Z,74.60
2018-08-28T13:46:13.791Z,72.90
2018-08-28T13:48:41.980Z,73.40
2018-08-28T13:51:10.100Z,74.20
2018-08-28T13:53:38.255Z,73.20
2018-08-28T13:56:06.335Z,73.40
2018-08-28T13:58:34.512Z,73.20
2018-08-28T14:01:02.633Z,73.70
2018-08-28T14:03:30.749Z,73.80
2018-08-28T14:05:58.883Z,73.40
2018-08-28T14:08:27.012Z,74.00
2018-08-28T14:10:55.137Z,74.60
2018-08-28T14:13:23.362Z,75.20
2018-08-28T14:15:51.425Z,74.40
2018-08-28T14:18:19.570Z,74.80
2018-08-28T14:20:47.685Z,75.20
2018-08-28T14:23:15.792Z,74.80
2018-08-28T14:25:43.912Z,74.50
2018-08-28T14:28:12.027Z,74.60
2018-08-28T14:30:40.289Z,74.30
2018-08-28T14:33:08.404Z,75.30
2018-08-28T14:35:36.619Z,75.40
2018-08-28T14:38:04.963Z,74.50
2018-08-28T14:40:33.097Z,74.60
2018-08-28T14:43:01.229Z,75.00
2018-08-28T14:45:29.342Z,74.90
2018-08-28T14:47:57.475Z,74.80
2018-08-28T14:50:25.635Z,73.90
2018-08-28T14:52:53.722Z,74.30
2018-08-28T14:55:21.865Z,75.20
2018-08-28T14:57:50.012Z,75.10
2018-08-28T15:00:18.152Z,74.90
2018-08-28T15:02:46.308Z,74.70
2018-08-28T15:05:14.435Z,75.20
2018-08-28T15:07:42.561Z,76.70
2018-08-28T15:10:10.692Z,74.90
2018-08-28T15:12:44.253Z,74.70
2018-08-28T15:15:12.375Z,75.30
2018-08-28T15:17:40.505Z,76.00
2018-08-28T15:20:08.643Z,76.00
2018-08-28T15:22:36.760Z,75.70
2018-08-28T15:25:05.130Z,75.40
2018-08-28T15:27:33.315Z,74.80
2018-08-28T15:30:01.398Z,74.90
2018-08-28T15:32:29.612Z,74.90
2018-08-28T15:34:57.976Z,74.80
2018-08-28T15:37:26.119Z,75.50
2018-08-28T15:39:54.275Z,75.40
2018-08-28T15:42:22.428Z,75.70
2018-08-28T15:44:50.593Z,75.80
2018-08-28T15:47:18.726Z,76.10
2018-08-28T15:49:46.874Z,75.20
2018-08-28T15:52:14.989Z,75.40
2018-08-28T15:54:43.138Z,74.60
2018-08-28T15:57:11.324Z,75.40
2018-08-28T15:59:39.543Z,74.10
2018-08-28T16:02:07.750Z,75.00
2018-08-28T16:04:35.881Z,74.20
2018-08-28T16:07:03.977Z,74.80
2018-08-28T16:09:32.096Z,74.80
2018-08-28T16:12:00.230Z,76.10
2018-08-28T16:14:28.361Z,74.50
2018-08-28T16:16:56.508Z,74.70
2018-08-28T16:19:24.633Z,75.20
2018-08-28T16:21:55.443Z,75.00
2018-08-28T16:24:23.591Z,75.30
2018-08-28T16:26:52.328Z,75.20
2018-08-28T16:29:20.432Z,75.00
2018-08-28T16:31:48.575Z,76.40
2018-08-28T16:34:16.680Z,75.40
2018-08-28T16:36:44.812Z,76.00
2018-08-28T16:39:12.943Z,75.60
2018-08-28T16:41:41.076Z,76.40
2018-08-28T16:44:09.353Z,76.50
2018-08-28T16:46:37.558Z,75.20
2018-08-28T16:49:05.663Z,75.90
2018-08-28T16:51:33.789Z,76.90
2018-08-28T16:54:01.931Z,77.50
2018-08-28T16:56:30.074Z,77.90
2018-08-28T16:58:58.180Z,77.60
2018-08-28T17:01:26.333Z,77.90
2018-08-28T17:03:54.432Z,79.00
2018-08-28T17:06:22.622Z,78.60
2018-08-28T17:08:50.740Z,79.40
2018-08-28T17:11:18.978Z,79.20
2018-08-28T17:13:47.092Z,79.60
2018-08-28T17:16:15.284Z,80.50
2018-08-28T17:18:43.417Z,80.00
2018-08-28T17:21:11.556Z,80.40
2018-08-28T17:23:39.667Z,80.50
2018-08-28T17:26:07.780Z,79.80
2018-08-28T17:28:35.892Z,80.20
2018-08-28T17:31:04.101Z,80.50
2018-08-28T17:33:32.146Z,80.50
2018-08-28T17:36:00.262Z,81.10
2018-08-28T17:38:28.374Z,81.40
2018-08-28T17:40:56.493Z,81.60
2018-08-28T17:43:24.608Z,81.70
2018-08-28T17:45:52.735Z,82.40
2018-08-28T17:48:20.898Z,82.00
2018-08-28T17:50:49.027Z,82.20
2018-08-28T17:53:17.135Z,82.50
2018-08-28T17:55:45.326Z,83.20
2018-08-28T17:58:13.444Z,83.20
2018-08-28T18:00:41.555Z,83.50
2018-08-28T18:03:09.677Z,83.70
2018-08-28T18:05:37.922Z,84.30
2018-08-28T18:08:06.037Z,84.30
2018-08-28T18:10:34.240Z,84.80
2018-08-28T18:13:03.144Z,85.10
2018-08-28T18:15:31.288Z,85.20
2018-08-28T18:17:59.452Z,85.50
2018-08-28T18:20:27.616Z,86.30
2018-08-28T18:22:55.735Z,85.90
2018-08-28T18:25:23.853Z,86.10
2018-08-28T18:27:52.048Z,86.70
2018-08-28T18:30:20.293Z,86.90
2018-08-28T18:32:48.529Z,87.10
2018-08-28T18:35:16.648Z,87.20
2018-08-28T18:37:44.996Z,87.60
2018-08-28T18:40:13.132Z,88.30
2018-08-28T18:42:42.796Z,88.70
2018-08-28T18:45:10.947Z,89.10
2018-08-28T18:47:39.087Z,89.70
2018-08-28T18:50:07.387Z,89.80
2018-08-28T18:52:35.520Z,89.80
2018-08-28T18:55:03.736Z,90.00
2018-08-28T18:57:31.845Z,90.40
2018-08-28T18:59:59.947Z,90.80
2018-08-28T19:02:28.088Z,91.00
2018-08-28T19:04:56.214Z,91.20
2018-08-28T19:07:24.334Z,91.40
2018-08-28T19:09:52.451Z,91.60
2018-08-28T19:12:20.583Z,91.70
2018-08-28T19:14:48.706Z,91.80
2018-08-28T19:17:16.906Z,92.00
2018-08-28T19:19:45.052Z,92.30
2018-08-28T19:22:13.476Z,92.40
2018-08-28T19:24:41.629Z,92.70
2018-08-28T19:27:10.664Z,92.80
2018-08-28T19:29:38.779Z,92.90
2018-08-28T19:32:06.954Z,93.10
2018-08-28T19:34:35.278Z,92.70
2018-08-28T19:37:03.427Z,92.70
2018-08-28T19:39:31.584Z,93.00
2018-08-28T19:41:59.698Z,93.50
2018-08-28T19:44:27.816Z,93.60
2018-08-28T19:46:55.959Z,93.90
2018-08-28T19:49:24.085Z,93.70
2018-08-28T19:51:52.304Z,93.70
2018-08-28T19:54:20.429Z,93.90
2018-08-28T19:56:48.573Z,94.40
2018-08-28T19:59:16.662Z,94.70
2018-08-28T20:01:44.773Z,94.90
2018-08-28T20:04:12.904Z,95.00
2018-08-28T20:06:41.021Z,94.90
2018-08-28T20:09:09.152Z,95.00
2018-08-28T20:11:37.257Z,95.00
2018-08-28T20:14:05.447Z,95.00
2018-08-28T20:16:33.568Z,95.20
2018-08-28T20:19:01.708Z,95.40
2018-08-28T20:21:29.839Z,95.50
2018-08-28T20:23:57.982Z,95.80
2018-08-28T20:26:26.112Z,95.80
2018-08-28T20:28:54.338Z,95.80
2018-08-28T20:31:22.500Z,95.90
2018-08-28T20:33:50.612Z,96.10
2018-08-28T20:36:18.735Z,96.40
2018-08-28T20:38:46.943Z,97.00
2018-08-28T20:41:15.093Z,97.70
2018-08-28T20:43:43.273Z,97.90
2018-08-28T20:46:11.430Z,98.50
2018-08-28T20:48:39.583Z,99.00
2018-08-28T20:51:07.746Z,98.50
2018-08-28T20:53:36.049Z,98.30
2018-08-28T20:56:04.104Z,98.60
2018-08-28T20:58:32.232Z,98.60
2018-08-28T21:01:00.360Z,98.80
2018-08-28T21:03:28.477Z,98.80
2018-08-28T21:05:56.604Z,98.70
2018-08-28T21:08:24.712Z,98.70
2018-08-28T21:10:52.847Z,98.90
2018-08-28T21:13:20.968Z,99.90
2018-08-28T21:15:49.109Z,99.90
2018-08-28T21:18:17.268Z,99.90
2018-08-28T21:20:45.367Z,99.90
2018-08-28T21:23:13.483Z,99.90
2018-08-28T21:25:41.580Z,99.90
2018-08-28T21:28:09.760Z,99.90
2018-08-28T21:30:37.868Z,99.90
2018-08-28T21:33:06.048Z,99.90
2018-08-28T21:35:34.237Z,99.90
2018-08-28T21:38:02.328Z,99.80
2018-08-28T21:40:30.450Z,99.70
2018-08-28T21:42:58.580Z,99.60
2018-08-28T21:45:26.687Z,99.90
2018-08-28T21:47:54.813Z,99.90
2018-08-28T21:50:22.940Z,99.90
2018-08-28T21:52:51.092Z,99.90
2018-08-28T21:55:19.199Z,99.90
2018-08-28T21:57:47.332Z,99.90
2018-08-28T22:00:15.446Z,99.90
2018-08-28T22:02:43.573Z,99.90
2018-08-28T22:05:11.709Z,99.90
2018-08-28T22:07:40.495Z,99.90
2018-08-28T22:10:08.976Z,99.90
2018-08-28T22:12:37.108Z,99.90
2018-08-28T22:15:05.492Z,99.90
2018-08-28T22:17:33.638Z,99.90
2018-08-28T22:20:01.851Z,99.90
2018-08-28T22:22:29.971Z,99.90
2018-08-28T22:24:58.080Z,99.90
2018-08-28T22:27:26.251Z,99.90
2018-08-28T22:29:54.324Z,99.90
2018-08-28T22:32:22.443Z,99.90
2018-08-28T22:34:50.550Z,99.90
2018-08-28T22:37:18.681Z,99.90
2018-08-28T22:39:46.802Z,99.90
2018-08-28T22:42:14.909Z,99.90
2018-08-28T22:44:43.030Z,99.90
2018-08-28T22:47:11.127Z,99.90
2018-08-28T22:49:39.260Z,99.90
2018-08-28T22:52:07.372Z,99.90
2018-08-28T22:54:35.496Z,99.90
2018-08-28T22:57:03.617Z,99.90
2018-08-28T22:59:31.765Z,99.90
2018-08-28T23:01:59.878Z,99.90
2018-08-28T23:04:28.010Z,99.90
2018-08-28T23:06:56.129Z,99.90
2018-08-28T23:09:24.261Z,99.90
2018-08-28T23:11:52.397Z,99.90
2018-08-28T23:14:27.339Z,99.90
2018-08-28T23:16:55.491Z,99.90
2018-08-28T23:19:24.128Z,99.90
2018-08-28T23:21:52.232Z,99.90
2018-08-28T23:24:20.352Z,99.90
2018-08-28T23:26:48.451Z,99.90
2018-08-28T23:29:16.584Z,99.90
2018-08-28T23:31:44.709Z,99.90
2018-08-28T23:34:12.830Z,99.90
2018-08-28T23:36:40.956Z,99.90
2018-08-28T23:39:09.063Z,99.90
2018-08-28T23:41:37.166Z,99.90
2018-08-28T23:44:05.688Z,99.90
2018-08-28T23:46:33.912Z,99.90
2018-08-28T23:49:02.160Z,99.90
2018-08-28T23:51:30.312Z,99.90
2018-08-28T23:53:58.563Z,99.90
2018-08-28T23:56:26.693Z,99.90
2018-08-28T23:58:54.841Z,99.90
